Time;durP1;ratioP1;P1;durP2;ratioP2;P2;SDS_P1;SDS_P2;PMS_P1;PMS_P2;Temp;Humidity;BMP_temperature;BMP_pressure;BME280_temperature;BME280_humidity;BME280_pressure;Samples;Min_cycle;Max_cycle;Signal;HPM_P1;HPM_P2
2023/07/26 00:01:32;;;;;;;18.70;14.13;;;;;;;;;;4946130;29;20416;-93
2023/07/26 00:03:58;;;;;;;15.37;12.37;;;;;;;;;;4945670;29;20394;-92
2023/07/26 00:06:25;;;;;;;16.50;12.70;;;;;;;;;;4948727;29;20504;-93
2023/07/26 00:08:51;;;;;;;17.23;13.60;;;;;;;;;;4908281;29;20436;-93
2023/07/26 00:11:17;;;;;;;17.47;14.40;;;;;;;;;;4888938;29;20464;-92
2023/07/26 00:13:43;;;;;;;16.33;13.70;;;;;;;;;;4887897;29;20610;-93
2023/07/26 00:16:09;;;;;;;21.13;14.40;;;;;;;;;;4893698;29;21138;-91
2023/07/26 00:18:35;;;;;;;18.90;12.27;;;;;;;;;;4910270;29;20443;-91
2023/07/26 00:21:01;;;;;;;19.70;12.10;;;;;;;;;;4893296;29;20445;-93
2023/07/26 00:23:27;;;;;;;19.50;13.47;;;;;;;;;;4898136;29;20535;-92
2023/07/26 00:25:53;;;;;;;17.30;13.93;;;;;;;;;;4890695;29;20449;-92
2023/07/26 00:28:19;;;;;;;16.43;13.27;;;;;;;;;;4891559;29;20416;-93
2023/07/26 00:30:45;;;;;;;18.90;12.90;;;;;;;;;;4895915;29;20423;-92
2023/07/26 00:33:11;;;;;;;14.70;12.07;;;;;;;;;;4890359;29;20445;-91
2023/07/26 00:35:39;;;;;;;16.00;13.13;;;;;;;;;;4884519;29;20441;-91
2023/07/26 00:38:05;;;;;;;20.43;12.13;;;;;;;;;;4892002;29;20498;-91
2023/07/26 00:40:32;;;;;;;16.90;13.97;;;;;;;;;;4941884;28;20425;-90
2023/07/26 00:42:58;;;;;;;19.47;13.03;;;;;;;;;;4954844;28;20429;-91
2023/07/26 00:45:24;;;;;;;17.60;12.50;;;;;;;;;;4970599;28;20787;-90
2023/07/26 00:47:50;;;;;;;16.80;11.90;;;;;;;;;;4944465;28;20597;-89
2023/07/26 00:50:16;;;;;;;15.73;12.37;;;;;;;;;;4946783;29;20445;-92
2023/07/26 00:52:42;;;;;;;14.77;12.13;;;;;;;;;;4934105;29;20482;-93
2023/07/26 00:55:08;;;;;;;16.87;10.67;;;;;;;;;;4964963;28;20433;-93
2023/07/26 00:57:34;;;;;;;12.53;10.43;;;;;;;;;;4947312;28;20824;-93
2023/07/26 01:00:00;;;;;;;12.50;9.30;;;;;;;;;;4958555;28;20934;-92
2023/07/26 01:02:26;;;;;;;10.57;8.67;;;;;;;;;;4972089;28;20479;-92
2023/07/26 01:04:52;;;;;;;9.70;8.53;;;;;;;;;;4955346;29;20760;-91
2023/07/26 01:07:19;;;;;;;10.03;7.63;;;;;;;;;;4941727;29;20455;-91
2023/07/26 01:09:46;;;;;;;12.37;9.00;;;;;;;;;;4949612;29;20477;-93
2023/07/26 01:12:14;;;;;;;9.50;8.17;;;;;;;;;;4951847;28;20520;-91
2023/07/26 01:14:41;;;;;;;14.60;7.73;;;;;;;;;;4951777;28;20422;-92
2023/07/26 01:17:07;;;;;;;10.60;8.30;;;;;;;;;;4918812;29;20540;-92
2023/07/26 01:19:33;;;;;;;11.17;8.43;;;;;;;;;;4904669;29;20438;-93
2023/07/26 01:21:59;;;;;;;10.30;8.33;;;;;;;;;;4907468;29;20445;-93
2023/07/26 01:24:25;;;;;;;9.67;8.60;;;;;;;;;;4907289;29;20464;-90
2023/07/26 01:26:51;;;;;;;10.13;7.53;;;;;;;;;;4909442;29;20479;-91
2023/07/26 01:29:17;;;;;;;7.47;6.50;;;;;;;;;;4898914;29;20430;-90
2023/07/26 01:31:43;;;;;;;9.03;7.43;;;;;;;;;;4905690;29;20446;-90
2023/07/26 01:34:09;;;;;;;10.77;6.93;;;;;;;;;;4910966;29;20447;-91
2023/07/26 01:36:35;;;;;;;9.87;7.70;;;;;;;;;;4897238;29;20445;-91
2023/07/26 01:39:02;;;;;;;8.07;7.13;;;;;;;;;;4902356;29;20452;-92
2023/07/26 01:41:28;;;;;;;7.87;6.40;;;;;;;;;;4911753;29;20445;-90
2023/07/26 01:43:54;;;;;;;8.10;6.80;;;;;;;;;;4900274;29;20417;-91
2023/07/26 01:46:20;;;;;;;8.90;7.07;;;;;;;;;;4901713;29;20570;-91
2023/07/26 01:48:46;;;;;;;9.53;7.40;;;;;;;;;;4927872;29;20441;-91
2023/07/26 01:51:12;;;;;;;9.60;6.37;;;;;;;;;;4937050;29;20433;-91
2023/07/26 01:53:38;;;;;;;8.50;7.60;;;;;;;;;;4933257;29;20451;-90
2023/07/26 01:56:04;;;;;;;8.63;7.40;;;;;;;;;;4933355;29;20438;-91
2023/07/26 01:58:30;;;;;;;7.30;6.60;;;;;;;;;;4940925;29;20432;-90
2023/07/26 02:00:56;;;;;;;12.30;7.00;;;;;;;;;;4923043;29;20420;-90
2023/07/26 02:03:22;;;;;;;10.47;7.40;;;;;;;;;;4949648;29;20426;-91
2023/07/26 02:05:48;;;;;;;8.63;6.50;;;;;;;;;;4932455;29;20439;-93
2023/07/26 02:08:16;;;;;;;8.10;6.57;;;;;;;;;;4937921;29;20463;-93
2023/07/26 02:10:42;;;;;;;8.10;6.13;;;;;;;;;;4956545;28;20433;-93
2023/07/26 02:13:08;;;;;;;10.10;7.40;;;;;;;;;;4942087;28;20418;-92
2023/07/26 02:15:34;;;;;;;9.30;6.20;;;;;;;;;;4950289;28;20469;-92
2023/07/26 02:18:00;;;;;;;7.53;6.43;;;;;;;;;;4942039;28;20930;-91
2023/07/26 02:20:26;;;;;;;7.93;6.40;;;;;;;;;;4942394;28;20462;-92
2023/07/26 02:22:52;;;;;;;10.80;7.13;;;;;;;;;;4947033;28;20429;-92
2023/07/26 02:25:18;;;;;;;6.73;5.20;;;;;;;;;;4947080;28;20493;-93
2023/07/26 02:27:44;;;;;;;7.20;6.47;;;;;;;;;;4945696;28;20485;-92
2023/07/26 02:30:10;;;;;;;6.03;5.53;;;;;;;;;;4949741;28;20426;-92
2023/07/26 02:32:37;;;;;;;6.40;4.73;;;;;;;;;;4938914;28;20434;-90
2023/07/26 02:35:03;;;;;;;6.17;5.67;;;;;;;;;;4944099;28;20524;-90
2023/07/26 02:37:29;;;;;;;5.77;5.17;;;;;;;;;;4946508;28;20441;-91
2023/07/26 02:39:55;;;;;;;7.23;4.67;;;;;;;;;;4948949;28;20945;-90
2023/07/26 02:42:21;;;;;;;6.10;5.30;;;;;;;;;;4946254;28;20430;-91
2023/07/26 02:44:47;;;;;;;5.37;4.87;;;;;;;;;;4939782;28;20429;-92
2023/07/26 02:47:13;;;;;;;5.60;5.00;;;;;;;;;;4947672;28;20612;-93
2023/07/26 02:49:39;;;;;;;8.40;4.73;;;;;;;;;;4948092;28;20434;-91
2023/07/26 02:52:06;;;;;;;6.53;4.90;;;;;;;;;;4961752;28;20442;-93
2023/07/26 02:54:32;;;;;;;4.83;4.30;;;;;;;;;;4948543;28;20498;-93
2023/07/26 02:56:58;;;;;;;5.80;4.70;;;;;;;;;;4947524;28;20433;-93
2023/07/26 02:59:24;;;;;;;4.97;4.47;;;;;;;;;;4947087;28;20422;-91
2023/07/26 03:01:51;;;;;;;5.00;4.43;;;;;;;;;;4945486;28;20486;-92
2023/07/26 03:04:18;;;;;;;8.60;4.33;;;;;;;;;;4940690;28;20445;-92
2023/07/26 03:06:44;;;;;;;7.23;4.80;;;;;;;;;;4945245;28;20961;-91
2023/07/26 03:09:10;;;;;;;4.93;4.40;;;;;;;;;;4931608;28;20442;-92
2023/07/26 03:11:36;;;;;;;7.70;4.37;;;;;;;;;;4948036;28;20454;-92
2023/07/26 03:14:06;;;;;;;5.70;4.93;;;;;;;;;;4950530;28;20453;-92
2023/07/26 03:16:32;;;;;;;5.23;4.57;;;;;;;;;;4963827;28;20426;-92
2023/07/26 03:18:58;;;;;;;5.23;4.23;;;;;;;;;;4946338;29;20425;-92
2023/07/26 03:21:23;;;;;;;7.10;4.97;;;;;;;;;;4948590;28;20450;-92
2023/07/26 03:23:53;;;;;;;7.70;4.33;;;;;;;;;;4943028;29;20422;-90
2023/07/26 03:26:19;;;;;;;5.40;4.90;;;;;;;;;;4944785;28;20457;-91
2023/07/26 03:28:45;;;;;;;8.20;7.00;;;;;;;;;;4964343;28;20402;-91
2023/07/26 03:31:11;;;;;;;7.60;5.30;;;;;;;;;;4900470;28;1141003;-91
2023/07/26 03:33:37;;;;;;;17.63;10.03;;;;;;;;;;4948088;28;20473;-90
2023/07/26 03:36:03;;;;;;;8.50;5.57;;;;;;;;;;4949606;28;21016;-92
2023/07/26 03:38:29;;;;;;;13.63;9.47;;;;;;;;;;4949524;28;20434;-92
2023/07/26 03:40:55;;;;;;;14.57;9.40;;;;;;;;;;4946916;28;20440;-91
2023/07/26 03:43:21;;;;;;;11.17;7.67;;;;;;;;;;4972465;28;20428;-91
2023/07/26 03:45:47;;;;;;;14.03;7.07;;;;;;;;;;4976781;28;20416;-93
2023/07/26 03:48:12;;;;;;;10.73;6.93;;;;;;;;;;4969914;28;21201;-93
2023/07/26 03:50:38;;;;;;;7.43;6.00;;;;;;;;;;4959997;28;20438;-91
2023/07/26 03:53:04;;;;;;;12.30;6.50;;;;;;;;;;4966471;28;20501;-92
2023/07/26 03:55:30;;;;;;;11.80;5.53;;;;;;;;;;4948985;28;20500;-92
2023/07/26 03:57:57;;;;;;;8.23;6.23;;;;;;;;;;4964862;28;20465;-92
2023/07/26 04:00:23;;;;;;;6.27;5.07;;;;;;;;;;4950974;28;20525;-92
2023/07/26 04:02:49;;;;;;;6.27;5.67;;;;;;;;;;4950109;28;20422;-92
2023/07/26 04:05:15;;;;;;;6.13;5.60;;;;;;;;;;4954163;28;20466;-92
2023/07/26 04:07:41;;;;;;;6.77;5.80;;;;;;;;;;4949563;28;20489;-91
2023/07/26 04:10:07;;;;;;;6.77;4.77;;;;;;;;;;4967143;28;20437;-92
2023/07/26 04:12:33;;;;;;;6.97;5.60;;;;;;;;;;4970540;28;20432;-92
2023/07/26 04:14:59;;;;;;;5.47;4.87;;;;;;;;;;4974143;28;20487;-92
2023/07/26 04:17:25;;;;;;;6.63;5.30;;;;;;;;;;4969837;28;20434;-92
2023/07/26 04:19:51;;;;;;;6.73;5.90;;;;;;;;;;4950724;28;20446;-92
2023/07/26 04:22:17;;;;;;;6.93;5.47;;;;;;;;;;4962817;28;20443;-91
2023/07/26 04:24:46;;;;;;;6.70;5.77;;;;;;;;;;4958165;28;20481;-92
2023/07/26 04:27:12;;;;;;;6.10;5.53;;;;;;;;;;4944230;28;20462;-92
2023/07/26 04:29:39;;;;;;;5.80;5.30;;;;;;;;;;4949285;28;20414;-91
2023/07/26 04:32:05;;;;;;;7.50;6.30;;;;;;;;;;4953534;28;20446;-93
2023/07/26 04:34:31;;;;;;;7.07;6.37;;;;;;;;;;4952254;28;20572;-93
2023/07/26 04:37:00;;;;;;;6.17;5.60;;;;;;;;;;4944995;28;20911;-93
2023/07/26 04:39:26;;;;;;;6.10;5.50;;;;;;;;;;4944836;28;20426;-91
2023/07/26 04:41:52;;;;;;;6.27;5.67;;;;;;;;;;4949785;28;20426;-90
2023/07/26 09:30:27;;;;;;;2.43;1.43;;;;;;;;;;4981389;28;20535;-93
2023/07/26 09:32:53;;;;;;;1.80;1.37;;;;;;;;;;4985775;28;20393;-84
2023/07/26 09:35:19;;;;;;;2.10;1.90;;;;;;;;;;4953160;28;20498;-83
2023/07/26 09:37:45;;;;;;;2.40;1.50;;;;;;;;;;4963960;28;20456;-83
2023/07/26 09:40:11;;;;;;;2.43;1.23;;;;;;;;;;4983375;28;20437;-89
2023/07/26 09:42:44;;;;;;;1.90;1.53;;;;;;;;;;4966453;28;20433;-88
2023/07/26 09:45:19;;;;;;;3.60;1.80;;;;;;;;;;4986240;28;20493;-84
2023/07/26 09:47:47;;;;;;;1.90;1.40;;;;;;;;;;4964481;28;20532;-86
2023/07/26 09:50:28;;;;;;;2.87;1.30;;;;;;;;;;4982474;28;20420;-91
2023/07/26 09:52:56;;;;;;;1.60;1.33;;;;;;;;;;4973043;28;20433;-92
2023/07/26 09:55:31;;;;;;;2.93;1.50;;;;;;;;;;4972686;28;20543;-93
2023/07/26 09:57:57;;;;;;;1.37;1.07;;;;;;;;;;4981511;28;20429;-91
2023/07/26 10:00:24;;;;;;;1.60;1.20;;;;;;;;;;4976489;28;20425;-93
2023/07/26 10:02:57;;;;;;;1.83;1.20;;;;;;;;;;5011220;28;20417;-91
2023/07/26 10:05:25;;;;;;;1.93;1.43;;;;;;;;;;4997804;28;20450;-93
2023/07/26 10:07:52;;;;;;;1.97;1.23;;;;;;;;;;4993015;28;20464;-92
2023/07/26 10:10:18;;;;;;;2.53;1.80;;;;;;;;;;4994255;28;20420;-94
2023/07/26 10:12:45;;;;;;;1.63;1.50;;;;;;;;;;4971145;28;20427;-93
2023/07/26 10:15:12;;;;;;;1.73;1.40;;;;;;;;;;4972438;28;20411;-92
2023/07/26 10:17:38;;;;;;;3.23;2.77;;;;;;;;;;4990153;28;20412;-92
2023/07/26 10:20:04;;;;;;;3.00;1.73;;;;;;;;;;4973596;28;20437;-94
2023/07/26 10:22:30;;;;;;;6.30;1.70;;;;;;;;;;4970405;28;20543;-94
2023/07/26 10:24:56;;;;;;;1.90;1.70;;;;;;;;;;4992124;28;20408;-93
2023/07/26 10:27:22;;;;;;;4.93;2.00;;;;;;;;;;4973491;28;20459;-90
2023/07/26 10:29:48;;;;;;;2.13;1.60;;;;;;;;;;4985447;28;20511;-92
2023/07/26 10:32:14;;;;;;;2.53;1.70;;;;;;;;;;4976171;28;20982;-89
2023/07/26 10:34:40;;;;;;;2.10;1.63;;;;;;;;;;4972551;28;20445;-89
2023/07/26 10:37:16;;;;;;;5.00;1.87;;;;;;;;;;4970095;28;20822;-91
2023/07/26 10:39:44;;;;;;;2.43;1.60;;;;;;;;;;4978827;28;20420;-92
2023/07/26 10:42:28;;;;;;;2.13;1.33;;;;;;;;;;4990052;28;20428;-91
2023/07/26 10:45:04;;;;;;;1.93;1.80;;;;;;;;;;4977050;28;20504;-90
2023/07/26 10:47:31;;;;;;;2.00;1.70;;;;;;;;;;4945613;29;20458;-91
2023/07/26 10:50:03;;;;;;;2.57;1.83;;;;;;;;;;4990158;28;20433;-92
2023/07/26 10:52:36;;;;;;;2.50;1.90;;;;;;;;;;4981075;28;20434;-90
2023/07/26 10:55:02;;;;;;;2.37;1.53;;;;;;;;;;4983691;28;20412;-91
2023/07/26 10:57:30;;;;;;;3.07;2.00;;;;;;;;;;4983610;28;20463;-91
2023/07/26 11:00:22;;;;;;;4.13;2.20;;;;;;;;;;4984356;28;20431;-92
2023/07/26 11:02:48;;;;;;;4.27;1.63;;;;;;;;;;4969108;28;20443;-91
2023/07/26 11:05:15;;;;;;;2.70;2.13;;;;;;;;;;4986529;28;20436;-93
2023/07/26 11:08:00;;;;;;;2.10;1.60;;;;;;;;;;4986694;28;20457;-94
2023/07/26 11:10:39;;;;;;;4.10;2.00;;;;;;;;;;4975412;28;20410;-92
2023/07/26 11:13:05;;;;;;;4.40;1.87;;;;;;;;;;4965594;28;20432;-91
2023/07/26 11:15:32;;;;;;;2.23;1.67;;;;;;;;;;5003579;28;20386;-91
2023/07/26 11:17:58;;;;;;;2.87;1.83;;;;;;;;;;4976377;28;20430;-90
2023/07/26 11:20:24;;;;;;;1.90;1.57;;;;;;;;;;4954762;28;20445;-91
2023/07/26 11:22:51;;;;;;;3.07;1.90;;;;;;;;;;4987357;28;20415;-91
2023/07/26 11:25:17;;;;;;;2.33;1.87;;;;;;;;;;4981125;28;20841;-91
2023/07/26 11:27:44;;;;;;;2.33;1.90;;;;;;;;;;4974810;28;20991;-92
2023/07/26 11:30:17;;;;;;;3.10;1.70;;;;;;;;;;4970522;28;21134;-91
2023/07/26 11:32:47;;;;;;;2.70;2.00;;;;;;;;;;4988336;28;20842;-91
2023/07/26 11:35:13;;;;;;;3.23;1.70;;;;;;;;;;4977419;28;20495;-91
2023/07/26 11:37:39;;;;;;;3.17;2.20;;;;;;;;;;4974319;28;20445;-92
2023/07/26 11:40:08;;;;;;;2.53;2.10;;;;;;;;;;4966672;28;20443;-91
2023/07/26 11:42:34;;;;;;;2.20;1.77;;;;;;;;;;4981146;28;21032;-90
2023/07/26 11:45:01;;;;;;;3.03;2.20;;;;;;;;;;4969891;28;21086;-93
2023/07/26 11:47:28;;;;;;;3.07;2.13;;;;;;;;;;4966924;28;20484;-93
2023/07/26 11:49:54;;;;;;;2.60;1.90;;;;;;;;;;4962026;28;20958;-93
2023/07/26 11:52:21;;;;;;;5.73;3.40;;;;;;;;;;4969938;28;20421;-93
2023/07/26 11:54:58;;;;;;;4.20;2.50;;;;;;;;;;4973788;28;20796;-93
2023/07/26 11:57:27;;;;;;;3.23;2.20;;;;;;;;;;4985258;28;20447;-92
2023/07/26 11:59:57;;;;;;;3.20;2.47;;;;;;;;;;4963377;28;20501;-92
2023/07/26 12:02:24;;;;;;;3.43;2.40;;;;;;;;;;4967229;28;20440;-92
2023/07/26 12:05:08;;;;;;;3.10;2.00;;;;;;;;;;4967811;28;20425;-92
2023/07/26 12:07:35;;;;;;;2.83;2.20;;;;;;;;;;4989700;28;20464;-93
2023/07/26 12:10:01;;;;;;;2.93;2.13;;;;;;;;;;4984487;28;20488;-92
2023/07/26 12:12:27;;;;;;;5.80;2.60;;;;;;;;;;4957655;28;20434;-92
2023/07/26 12:14:53;;;;;;;3.67;2.33;;;;;;;;;;4963831;28;20468;-93
2023/07/26 12:17:19;;;;;;;2.83;2.57;;;;;;;;;;4973930;28;20485;-94
2023/07/26 12:19:45;;;;;;;4.43;2.30;;;;;;;;;;4971330;28;20504;-92
2023/07/26 12:22:11;;;;;;;3.53;2.30;;;;;;;;;;4968801;28;20445;-93
2023/07/26 12:24:51;;;;;;;4.90;3.10;;;;;;;;;;4964300;28;20409;-92
2023/07/26 12:27:17;;;;;;;4.07;2.50;;;;;;;;;;4975711;28;20461;-92
2023/07/26 12:29:44;;;;;;;4.97;2.47;;;;;;;;;;4971481;28;20518;-92
2023/07/26 12:32:14;;;;;;;3.40;2.20;;;;;;;;;;4973279;28;20429;-92
2023/07/26 12:34:42;;;;;;;3.03;2.40;;;;;;;;;;4973734;28;20425;-91
2023/07/26 12:37:08;;;;;;;4.23;2.30;;;;;;;;;;4971706;28;20963;-93
2023/07/26 12:39:36;;;;;;;3.47;2.37;;;;;;;;;;4973566;28;20750;-92
2023/07/26 12:42:05;;;;;;;3.00;2.50;;;;;;;;;;4972151;28;20413;-92
2023/07/26 12:44:31;;;;;;;2.93;2.20;;;;;;;;;;4973176;28;20433;-93
2023/07/26 12:46:59;;;;;;;3.67;2.33;;;;;;;;;;4958922;28;20500;-92
2023/07/26 12:49:25;;;;;;;2.90;2.20;;;;;;;;;;4963708;28;20444;-91
2023/07/26 12:51:51;;;;;;;9.00;2.07;;;;;;;;;;4972050;28;20524;-93
2023/07/26 12:54:18;;;;;;;5.50;2.47;;;;;;;;;;4974483;28;20448;-93
2023/07/26 12:56:48;;;;;;;3.20;2.53;;;;;;;;;;4977042;28;20437;-94
2023/07/26 12:59:14;;;;;;;5.73;3.00;;;;;;;;;;4991250;28;20421;-93
2023/07/26 13:01:40;;;;;;;5.00;2.50;;;;;;;;;;4971366;28;20520;-92
2023/07/26 13:04:07;;;;;;;4.20;3.00;;;;;;;;;;4972414;28;20460;-91
2023/07/26 13:06:33;;;;;;;3.43;2.30;;;;;;;;;;4971776;28;20428;-93
2023/07/26 13:08:59;;;;;;;3.43;2.33;;;;;;;;;;4973308;28;20468;-92
2023/07/26 13:11:25;;;;;;;3.13;2.83;;;;;;;;;;4971405;28;20448;-93
2023/07/26 13:13:51;;;;;;;3.47;2.50;;;;;;;;;;4970584;28;20472;-92
2023/07/26 13:16:18;;;;;;;5.57;3.00;;;;;;;;;;4969822;28;20434;-94
2023/07/26 13:18:44;;;;;;;3.30;2.30;;;;;;;;;;4988836;28;20421;-94
2023/07/26 13:21:10;;;;;;;3.30;2.30;;;;;;;;;;4975001;28;20517;-94
2023/07/26 13:23:36;;;;;;;3.33;2.30;;;;;;;;;;4977387;28;20424;-94
2023/07/26 13:26:02;;;;;;;3.80;2.90;;;;;;;;;;4970965;28;20437;-90
2023/07/26 13:28:28;;;;;;;4.60;2.67;;;;;;;;;;4966603;28;20460;-95
2023/07/26 13:30:54;;;;;;;3.40;2.70;;;;;;;;;;4978783;28;20441;-94
2023/07/26 13:33:21;;;;;;;4.53;2.70;;;;;;;;;;4972005;28;20492;-94
2023/07/26 13:35:47;;;;;;;5.13;2.90;;;;;;;;;;4972086;28;20933;-92
2023/07/26 13:38:15;;;;;;;5.67;2.50;;;;;;;;;;4981041;28;20987;-93
2023/07/26 13:41:00;;;;;;;3.97;2.20;;;;;;;;;;4996007;28;20449;-94
2023/07/26 13:43:30;;;;;;;3.20;2.20;;;;;;;;;;4979553;28;20406;-93
2023/07/26 13:46:12;;;;;;;3.30;1.97;;;;;;;;;;5001117;28;20428;-94
2023/07/26 13:48:38;;;;;;;3.33;2.57;;;;;;;;;;4975540;28;20465;-93
2023/07/26 13:51:04;;;;;;;4.33;3.13;;;;;;;;;;4973928;28;20424;-96
2023/07/26 13:53:31;;;;;;;3.00;2.40;;;;;;;;;;4971072;28;20814;-94
2023/07/26 13:55:57;;;;;;;5.17;2.60;;;;;;;;;;4982631;28;20448;-92
2023/07/26 13:58:24;;;;;;;4.50;2.60;;;;;;;;;;4996809;28;20502;-92
2023/07/26 14:00:53;;;;;;;7.70;3.00;;;;;;;;;;4980223;28;20429;-93
2023/07/26 14:03:20;;;;;;;5.43;2.47;;;;;;;;;;4993569;28;20925;-92
2023/07/26 14:05:46;;;;;;;10.00;2.33;;;;;;;;;;4978035;28;20917;-93
2023/07/26 14:08:12;;;;;;;3.33;2.50;;;;;;;;;;4977709;28;20464;-94
2023/07/26 14:10:38;;;;;;;4.23;3.37;;;;;;;;;;4977601;28;20432;-95
2023/07/26 14:13:04;;;;;;;3.77;2.60;;;;;;;;;;4970553;28;20444;-94
2023/07/26 14:15:30;;;;;;;4.47;3.43;;;;;;;;;;4987572;28;20453;-95
2023/07/26 14:17:56;;;;;;;4.00;2.40;;;;;;;;;;4976588;28;20943;-92
2023/07/26 14:20:22;;;;;;;3.40;2.57;;;;;;;;;;4972922;28;20867;-91
2023/07/26 14:22:48;;;;;;;4.10;2.70;;;;;;;;;;4971767;28;20492;-90
2023/07/26 14:25:14;;;;;;;4.10;2.63;;;;;;;;;;4965921;28;20436;-90
2023/07/26 14:27:42;;;;;;;5.00;3.20;;;;;;;;;;4969649;28;20469;-90
2023/07/26 14:30:08;;;;;;;4.30;2.90;;;;;;;;;;4969041;28;21012;-91
2023/07/26 14:32:34;;;;;;;4.67;2.40;;;;;;;;;;4971091;28;20433;-88
2023/07/26 15:57:21;;;;;;;2.60;1.93;;;;;;;;;;5166499;23;20508;-94
2023/07/26 16:17:56;;;;;;;3.63;2.50;;;;;;;;;;5010120;28;20459;-92
2023/07/26 16:20:22;;;;;;;3.30;2.40;;;;;;;;;;4974396;28;20429;-92
2023/07/26 16:22:48;;;;;;;3.70;2.10;;;;;;;;;;4969110;28;20509;-92
2023/07/26 16:25:14;;;;;;;3.00;2.33;;;;;;;;;;4970673;28;20520;-92
2023/07/26 16:27:40;;;;;;;3.13;1.70;;;;;;;;;;4976954;28;20456;-92
2023/07/26 16:30:09;;;;;;;2.93;2.30;;;;;;;;;;4991858;28;20471;-92
2023/07/26 16:32:35;;;;;;;3.50;2.50;;;;;;;;;;4969067;28;20433;-95
2023/07/26 16:35:01;;;;;;;3.07;1.93;;;;;;;;;;4972988;28;20433;-90
2023/07/26 16:37:27;;;;;;;5.23;2.37;;;;;;;;;;4970293;28;20978;-90
2023/07/26 16:39:53;;;;;;;5.47;2.30;;;;;;;;;;4967633;28;21120;-89
2023/07/26 16:42:19;;;;;;;3.23;2.10;;;;;;;;;;4984728;28;20497;-89
2023/07/26 16:44:45;;;;;;;3.70;2.57;;;;;;;;;;4969237;28;20527;-90
2023/07/26 16:47:11;;;;;;;3.70;2.00;;;;;;;;;;4968766;28;20492;-91
2023/07/26 16:49:37;;;;;;;4.67;2.53;;;;;;;;;;4977172;28;20483;-91
2023/07/26 16:52:04;;;;;;;2.40;1.67;;;;;;;;;;4961302;28;20429;-91
2023/07/26 16:54:30;;;;;;;2.87;1.90;;;;;;;;;;4968607;28;20982;-89
2023/07/26 16:56:56;;;;;;;2.87;2.10;;;;;;;;;;4966763;28;20438;-89
2023/07/26 16:59:22;;;;;;;2.73;1.97;;;;;;;;;;4983869;28;20447;-87
2023/07/26 17:01:48;;;;;;;2.63;2.27;;;;;;;;;;4965271;28;20413;-88
2023/07/26 17:04:14;;;;;;;2.57;2.00;;;;;;;;;;4964179;28;20948;-90
2023/07/26 17:06:40;;;;;;;2.77;1.97;;;;;;;;;;4984928;28;20433;-88
2023/07/26 17:09:06;;;;;;;10.60;2.30;;;;;;;;;;4959710;28;20461;-88
2023/07/26 17:11:32;;;;;;;4.37;2.40;;;;;;;;;;4981846;28;20448;-87
2023/07/26 17:14:01;;;;;;;3.37;2.43;;;;;;;;;;4965422;28;20417;-88
2023/07/26 17:16:27;;;;;;;3.07;2.37;;;;;;;;;;4963335;28;20477;-88
2023/07/26 17:18:53;;;;;;;3.13;2.13;;;;;;;;;;4964541;28;20535;-88
2023/07/26 17:21:21;;;;;;;2.63;1.80;;;;;;;;;;4961885;28;20897;-92
2023/07/26 17:23:48;;;;;;;3.60;2.27;;;;;;;;;;4965136;28;20823;-89
2023/07/26 17:26:14;;;;;;;3.07;2.07;;;;;;;;;;4966382;28;20437;-90
2023/07/26 17:28:40;;;;;;;2.63;1.90;;;;;;;;;;4964386;28;20532;-88
2023/07/26 17:31:06;;;;;;;2.90;2.10;;;;;;;;;;4976465;28;20420;-88
2023/07/26 17:33:33;;;;;;;3.03;2.20;;;;;;;;;;4959406;28;20484;-88
2023/07/26 17:36:00;;;;;;;2.37;2.17;;;;;;;;;;4968363;28;20490;-90
2023/07/26 17:38:26;;;;;;;3.13;1.80;;;;;;;;;;4963188;28;20527;-89
2023/07/26 17:41:04;;;;;;;6.60;2.53;;;;;;;;;;4959356;28;20430;-89
2023/07/26 17:43:30;;;;;;;2.80;2.10;;;;;;;;;;4984508;28;20436;-90
2023/07/26 17:45:56;;;;;;;5.77;1.83;;;;;;;;;;4964750;28;20460;-89
2023/07/26 17:48:40;;;;;;;3.40;1.93;;;;;;;;;;4956793;28;20436;-89
2023/07/26 17:51:07;;;;;;;6.03;3.40;;;;;;;;;;4962397;28;20986;-90
2023/07/26 17:53:36;;;;;;;2.60;2.13;;;;;;;;;;4963948;28;20461;-89
2023/07/26 17:56:03;;;;;;;2.83;2.27;;;;;;;;;;4970656;28;20420;-90
2023/07/26 17:58:28;;;;;;;2.83;2.17;;;;;;;;;;4967728;28;20437;-89
2023/07/26 18:00:59;;;;;;;4.00;2.57;;;;;;;;;;4971209;28;20982;-88
2023/07/26 18:03:25;;;;;;;3.87;2.10;;;;;;;;;;4966930;28;20689;-88
2023/07/26 18:05:54;;;;;;;2.80;2.27;;;;;;;;;;4984336;28;20416;-89
2023/07/26 18:08:20;;;;;;;2.67;2.20;;;;;;;;;;4964715;28;20469;-90
2023/07/26 18:10:46;;;;;;;4.93;3.80;;;;;;;;;;4977865;28;20437;-87
2023/07/26 18:13:12;;;;;;;7.30;3.27;;;;;;;;;;4980276;28;20428;-89
2023/07/26 18:15:38;;;;;;;3.73;3.00;;;;;;;;;;4983811;28;20432;-87
2023/07/26 18:18:04;;;;;;;5.17;2.50;;;;;;;;;;4991487;28;20454;-88
2023/07/26 18:20:30;;;;;;;2.30;2.10;;;;;;;;;;4970022;28;20426;-88
2023/07/26 18:22:57;;;;;;;3.60;2.53;;;;;;;;;;4964868;28;20503;-87
2023/07/26 18:25:23;;;;;;;3.10;2.53;;;;;;;;;;4970663;28;20441;-89
2023/07/26 18:27:50;;;;;;;4.30;1.80;;;;;;;;;;4973154;28;20491;-89
2023/07/26 18:30:17;;;;;;;2.43;1.90;;;;;;;;;;4962672;28;20798;-89
2023/07/26 18:32:43;;;;;;;2.67;1.93;;;;;;;;;;4968951;28;20806;-90
2023/07/26 18:35:09;;;;;;;4.43;2.80;;;;;;;;;;4966396;28;20475;-88
2023/07/26 18:37:35;;;;;;;3.70;2.67;;;;;;;;;;4991784;28;20448;-88
2023/07/26 18:40:03;;;;;;;2.93;2.20;;;;;;;;;;4947589;28;20446;-88
2023/07/26 18:42:29;;;;;;;6.63;2.60;;;;;;;;;;4989140;28;20433;-88
2023/07/26 18:44:55;;;;;;;4.90;2.53;;;;;;;;;;4954439;28;20441;-88
2023/07/26 18:47:21;;;;;;;2.33;1.97;;;;;;;;;;4972743;28;20543;-89
2023/07/26 18:49:47;;;;;;;2.70;2.10;;;;;;;;;;4973946;28;20476;-89
2023/07/26 18:52:13;;;;;;;3.77;2.20;;;;;;;;;;4956181;28;20535;-89
2023/07/26 18:54:39;;;;;;;4.20;2.17;;;;;;;;;;4976338;28;20445;-88
2023/07/26 18:57:10;;;;;;;6.03;2.17;;;;;;;;;;4960501;28;20438;-88
2023/07/26 18:59:40;;;;;;;3.13;2.20;;;;;;;;;;4959823;28;20428;-90
2023/07/26 19:02:06;;;;;;;5.30;3.43;;;;;;;;;;4960851;28;20439;-89
2023/07/26 19:04:32;;;;;;;4.07;2.30;;;;;;;;;;4967787;28;20496;-85
2023/07/26 19:07:00;;;;;;;5.87;3.27;;;;;;;;;;4949472;28;20457;-87
2023/07/26 19:09:29;;;;;;;7.67;2.20;;;;;;;;;;4966983;28;20444;-86
2023/07/26 19:11:56;;;;;;;4.50;3.17;;;;;;;;;;4967855;28;20842;-87
2023/07/26 19:14:22;;;;;;;4.37;2.60;;;;;;;;;;4964176;28;20445;-89
2023/07/26 19:16:48;;;;;;;2.90;2.20;;;;;;;;;;4989823;28;20432;-87
2023/07/26 19:19:14;;;;;;;3.33;2.47;;;;;;;;;;4970819;28;20425;-88
2023/07/26 19:21:40;;;;;;;3.30;2.27;;;;;;;;;;4980760;28;20433;-87
2023/07/26 19:24:06;;;;;;;3.47;2.50;;;;;;;;;;4965529;28;20444;-88
2023/07/26 19:26:32;;;;;;;3.90;2.20;;;;;;;;;;4971188;28;20424;-89
2023/07/26 19:28:59;;;;;;;3.70;2.40;;;;;;;;;;4971281;28;20496;-90
2023/07/26 19:31:25;;;;;;;3.63;2.23;;;;;;;;;;4973645;28;20508;-90
2023/07/26 19:33:53;;;;;;;4.10;2.57;;;;;;;;;;4975989;28;20433;-90
2023/07/26 19:36:21;;;;;;;3.87;2.70;;;;;;;;;;4984120;28;20437;-90
2023/07/26 19:38:48;;;;;;;6.30;2.77;;;;;;;;;;4972441;28;20417;-90
2023/07/26 19:41:15;;;;;;;7.13;2.97;;;;;;;;;;4969760;28;20447;-90
2023/07/26 19:43:44;;;;;;;3.90;2.03;;;;;;;;;;4970835;28;20443;-91
2023/07/26 19:46:14;;;;;;;4.30;2.07;;;;;;;;;;4971075;28;21108;-90
2023/07/26 19:48:47;;;;;;;8.13;2.90;;;;;;;;;;4977283;28;20499;-88
2023/07/26 19:51:16;;;;;;;4.33;2.57;;;;;;;;;;4976250;28;20491;-90
2023/07/26 19:53:45;;;;;;;4.03;2.53;;;;;;;;;;4987050;28;20429;-87
2023/07/26 19:56:11;;;;;;;14.40;3.13;;;;;;;;;;4968513;28;20526;-89
2023/07/26 19:58:37;;;;;;;5.83;4.00;;;;;;;;;;4972904;28;20447;-88
2023/07/26 20:01:16;;;;;;;4.53;2.77;;;;;;;;;;4968954;28;20938;-88
2023/07/26 20:03:42;;;;;;;4.17;2.63;;;;;;;;;;4973401;28;20799;-90
2023/07/26 20:06:08;;;;;;;3.50;2.77;;;;;;;;;;4971144;28;20448;-89
2023/07/26 20:08:36;;;;;;;4.23;2.50;;;;;;;;;;4970132;28;20461;-90
2023/07/26 20:11:03;;;;;;;5.60;2.60;;;;;;;;;;4982286;28;20431;-91
2023/07/26 20:13:28;;;;;;;4.97;2.60;;;;;;;;;;4965066;28;20439;-91
2023/07/26 20:15:55;;;;;;;2.93;2.37;;;;;;;;;;4966433;28;20800;-90
2023/07/26 20:18:22;;;;;;;4.13;2.80;;;;;;;;;;4965163;28;20480;-89
2023/07/26 20:20:48;;;;;;;3.63;2.50;;;;;;;;;;4982137;28;20437;-89
2023/07/26 20:23:20;;;;;;;14.97;3.50;;;;;;;;;;4969757;28;20441;-90
2023/07/26 20:25:46;;;;;;;5.30;3.27;;;;;;;;;;4976684;28;20436;-90
2023/07/26 20:28:12;;;;;;;4.20;3.20;;;;;;;;;;4981649;28;20605;-89
2023/07/26 20:30:40;;;;;;;4.23;3.00;;;;;;;;;;4969246;28;20437;-90
2023/07/26 20:33:06;;;;;;;4.13;2.37;;;;;;;;;;4972686;28;20449;-88
2023/07/26 20:35:32;;;;;;;9.67;3.00;;;;;;;;;;4968539;28;21032;-88
2023/07/26 20:38:00;;;;;;;3.23;2.87;;;;;;;;;;4962646;28;20560;-90
2023/07/26 20:40:30;;;;;;;5.27;2.50;;;;;;;;;;4989218;28;20983;-89
2023/07/26 20:42:56;;;;;;;6.50;2.90;;;;;;;;;;4987180;28;20429;-90
2023/07/26 20:45:22;;;;;;;7.27;3.57;;;;;;;;;;4975777;28;20491;-92
2023/07/26 20:47:48;;;;;;;5.00;3.43;;;;;;;;;;4973610;28;20464;-91
2023/07/26 20:50:14;;;;;;;4.07;3.20;;;;;;;;;;4972095;28;20456;-91
2023/07/26 20:52:40;;;;;;;4.40;2.73;;;;;;;;;;4978687;28;20504;-91
2023/07/26 20:55:07;;;;;;;4.50;2.50;;;;;;;;;;4967199;28;20444;-91
2023/07/26 20:57:33;;;;;;;4.07;2.87;;;;;;;;;;4973424;28;20459;-92
2023/07/26 21:00:00;;;;;;;4.33;3.20;;;;;;;;;;4989331;28;20883;-93
2023/07/26 21:02:29;;;;;;;4.60;3.10;;;;;;;;;;4971110;28;20433;-92
2023/07/26 21:04:55;;;;;;;3.20;2.90;;;;;;;;;;4970467;28;20448;-92
2023/07/26 21:07:21;;;;;;;7.20;2.70;;;;;;;;;;4973161;28;20464;-91